Huvudsida
METAR-TAF:

METAR-TAF

Flygplatser :

Padua, Italien

latitud: 45-23-45N, longitud: 11-50-53E, höjd: 13 m

Aktuellt väderrapport

Denna rapport gjordes för 15 timmar och 40 minuter sedan, klockan 06:00 UTC
Vind 4 kt från nord, varierande mellan nord/nordväst och nordost
Temperatur 24°C
Fuktighet 74%
Tryck 1012 hPa
Sikt: 9000 m

METAR: LIPU 200600Z 36004KT 330V050 9000 NSC 24/19 Q1012

Tid: 23:40 (21:40 UTC)


TAF: saknas

Aktuella väderrapporter och prognoser från 4000 flygplatser (METAR- och TAF-rapporter).

De tillgängliga stationerna syns som gula och röda prickar på kartan.

För musen över prickarna för att se namnen på stationerna.

Klicka sedan för att få väderrapporter och prognoser.

För att ändra kartan: Klicka på de gröna knapparna med ett svart kors på för att zooma in; den gröna knappen med ett streck på för att zooma ut; eller på de gröna pilarna för angränsande kartor.


METAR-TAF: